Time;durP1;ratioP1;P1;durP2;ratioP2;P2;SDS_P1;SDS_P2;PMS_P1;PMS_P2;Temp;Humidity;BMP_temperature;BMP_pressure;BME280_temperature;BME280_humidity;BME280_pressure;Samples;Min_cycle;Max_cycle;Signal;HPM_P1;HPM_P2
2022/02/26 00:02:03;;;;;;;6.70;6.10;;;;;;;;;;5049207;28;20044;-82
2022/02/26 00:04:33;;;;;;;6.25;5.78;;;;;;;;;;5051336;28;20139;-82
2022/02/26 00:07:03;;;;;;;6.15;5.63;;;;;;;;;;5052550;28;20491;-81
2022/02/26 00:09:31;;;;;;;6.00;5.03;;;;;;;;;;5046681;28;20040;-82
2022/02/26 00:12:02;;;;;;;4.85;2.80;;;;;;;;;;5047003;28;20051;-82
2022/02/26 00:14:31;;;;;;;5.38;2.50;;;;;;;;;;5052512;28;20053;-83
2022/02/26 00:17:00;;;;;;;1.90;1.80;;;;;;;;;;5035114;28;20041;-83
2022/02/26 00:19:31;;;;;;;2.25;2.15;;;;;;;;;;5043536;28;20057;-83
2022/02/26 00:22:00;;;;;;;2.10;2.00;;;;;;;;;;5050188;28;20094;-83
2022/02/26 00:24:29;;;;;;;2.10;2.00;;;;;;;;;;5047272;28;20080;-82
2022/02/26 00:26:58;;;;;;;2.60;2.50;;;;;;;;;;5034025;28;20544;-82
2022/02/26 00:29:26;;;;;;;2.78;2.58;;;;;;;;;;5047009;28;20049;-83
2022/02/26 00:31:56;;;;;;;3.20;2.90;;;;;;;;;;5058205;28;20476;-84
2022/02/26 00:34:25;;;;;;;3.10;2.88;;;;;;;;;;5045770;28;20052;-77
2022/02/26 00:36:53;;;;;;;2.80;2.70;;;;;;;;;;5054090;28;20131;-80
2022/02/26 00:39:20;;;;;;;3.75;3.45;;;;;;;;;;5046297;28;20045;-80
2022/02/26 00:41:48;;;;;;;4.38;3.63;;;;;;;;;;5016880;28;20042;-80
2022/02/26 00:44:16;;;;;;;4.05;3.75;;;;;;;;;;5047880;28;20407;-79
2022/02/26 00:46:45;;;;;;;4.18;3.83;;;;;;;;;;5046514;28;20072;-80
2022/02/26 00:51:59;;;;;;;3.97;3.67;;;;;;;;;;5053879;28;20085;-80
2022/02/26 00:54:26;;;;;;;4.30;3.95;;;;;;;;;;5052073;28;20103;-80
2022/02/26 00:56:55;;;;;;;4.10;3.70;;;;;;;;;;5053863;28;20551;-80
2022/02/26 00:59:22;;;;;;;3.72;3.53;;;;;;;;;;5053411;28;20052;-80
2022/02/26 01:01:50;;;;;;;7.15;4.13;;;;;;;;;;5036109;28;20060;-80
2022/02/26 01:04:18;;;;;;;3.38;3.17;;;;;;;;;;5052260;28;20059;-82
2022/02/26 01:06:46;;;;;;;5.38;4.70;;;;;;;;;;5053822;28;20076;-82
2022/02/26 01:09:14;;;;;;;4.47;4.07;;;;;;;;;;5053673;28;20050;-81
2022/02/26 01:11:42;;;;;;;8.45;4.47;;;;;;;;;;5053726;28;20392;-80
2022/02/26 01:14:10;;;;;;;6.03;5.53;;;;;;;;;;5053694;28;20056;-81
2022/02/26 01:16:38;;;;;;;7.28;5.13;;;;;;;;;;5053688;28;20068;-80
2022/02/26 01:19:05;;;;;;;3.42;3.17;;;;;;;;;;5051759;28;20049;-79
2022/02/26 01:21:32;;;;;;;2.90;2.70;;;;;;;;;;5053097;28;20530;-80
2022/02/26 01:24:00;;;;;;;3.58;2.38;;;;;;;;;;5036113;28;20549;-80
2022/02/26 01:26:29;;;;;;;2.83;2.63;;;;;;;;;;5053755;28;20079;-80
2022/02/26 01:28:59;;;;;;;1.70;1.60;;;;;;;;;;5053775;28;20060;-80
2022/02/26 01:31:27;;;;;;;1.70;1.60;;;;;;;;;;5053207;28;20057;-80
2022/02/26 01:33:55;;;;;;;1.75;1.65;;;;;;;;;;5053259;28;20053;-80
2022/02/26 01:36:23;;;;;;;2.22;1.90;;;;;;;;;;5053114;28;20053;-80
2022/02/26 01:38:50;;;;;;;4.50;1.73;;;;;;;;;;5035938;28;20041;-80
2022/02/26 01:41:18;;;;;;;1.60;1.50;;;;;;;;;;5052139;28;20045;-79
2022/02/26 01:43:46;;;;;;;3.15;1.70;;;;;;;;;;5053276;28;20128;-80
2022/02/26 01:46:13;;;;;;;1.50;1.50;;;;;;;;;;5051797;28;20044;-80
2022/02/26 01:48:40;;;;;;;2.08;1.73;;;;;;;;;;5053527;28;20044;-80
2022/02/26 01:51:10;;;;;;;3.17;2.10;;;;;;;;;;5052210;28;20052;-79
2022/02/26 01:53:37;;;;;;;2.78;2.45;;;;;;;;;;5032892;28;20459;-79
2022/02/26 01:56:07;;;;;;;1.90;1.60;;;;;;;;;;5048179;28;20108;-80
2022/02/26 01:58:36;;;;;;;1.85;1.65;;;;;;;;;;5050796;28;20141;-80
2022/02/26 02:01:06;;;;;;;2.22;1.65;;;;;;;;;;5053949;28;20118;-80
2022/02/26 02:03:34;;;;;;;2.15;1.55;;;;;;;;;;5056901;28;20057;-80
2022/02/26 02:06:01;;;;;;;1.67;1.60;;;;;;;;;;5056891;28;20558;-80
2022/02/26 02:08:29;;;;;;;2.55;2.13;;;;;;;;;;5056835;28;20084;-81
2022/02/26 02:10:56;;;;;;;1.80;1.70;;;;;;;;;;5055690;28;20110;-81
2022/02/26 02:13:24;;;;;;;1.80;1.70;;;;;;;;;;5055765;28;20053;-81
2022/02/26 02:15:55;;;;;;;1.40;1.40;;;;;;;;;;5055582;28;20519;-81
2022/02/26 02:18:22;;;;;;;1.80;1.70;;;;;;;;;;5056757;28;20136;-81
2022/02/26 02:20:50;;;;;;;1.50;1.40;;;;;;;;;;5055412;28;20495;-81
2022/02/26 02:23:17;;;;;;;1.63;1.52;;;;;;;;;;5055806;28;20049;-81
2022/02/26 02:25:45;;;;;;;1.80;1.70;;;;;;;;;;5056106;28;20052;-80
2022/02/26 02:28:15;;;;;;;2.13;2.03;;;;;;;;;;5055823;28;20051;-80
2022/02/26 02:30:42;;;;;;;2.10;2.00;;;;;;;;;;5055298;28;20049;-81
2022/02/26 02:33:09;;;;;;;2.28;2.17;;;;;;;;;;5056740;28;20497;-81
2022/02/26 02:35:39;;;;;;;1.85;1.67;;;;;;;;;;5055252;28;20045;-80
2022/02/26 02:38:15;;;;;;;2.83;1.67;;;;;;;;;;5037974;28;20096;-81
2022/02/26 02:40:45;;;;;;;2.00;1.90;;;;;;;;;;5035309;28;20117;-81
2022/02/26 02:43:12;;;;;;;3.80;2.50;;;;;;;;;;5051471;28;20567;-81
2022/02/26 02:45:41;;;;;;;2.97;2.78;;;;;;;;;;5051719;28;20045;-80
2022/02/26 02:48:08;;;;;;;2.75;2.55;;;;;;;;;;5051648;28;20602;-80
2022/02/26 02:50:36;;;;;;;4.20;2.25;;;;;;;;;;5042261;28;20419;-80
2022/02/26 02:53:04;;;;;;;3.28;2.78;;;;;;;;;;5055222;28;20119;-79
2022/02/26 02:55:31;;;;;;;2.92;2.72;;;;;;;;;;5056241;28;20037;-79
2022/02/26 02:58:00;;;;;;;2.22;2.13;;;;;;;;;;5054602;28;20140;-79
2022/02/26 03:00:29;;;;;;;3.47;2.03;;;;;;;;;;5054879;28;20049;-80
2022/02/26 03:02:59;;;;;;;6.35;2.38;;;;;;;;;;5054765;28;20118;-79
2022/02/26 03:05:27;;;;;;;2.25;2.10;;;;;;;;;;5055930;28;20053;-79
2022/02/26 03:07:54;;;;;;;2.13;1.92;;;;;;;;;;5054395;28;20072;-80
2022/02/26 03:10:21;;;;;;;1.73;1.70;;;;;;;;;;5055620;28;20487;-80
2022/02/26 03:12:52;;;;;;;2.45;2.08;;;;;;;;;;5054988;28;20055;-80
2022/02/26 03:15:23;;;;;;;2.45;1.63;;;;;;;;;;5055596;28;20053;-79
2022/02/26 03:17:51;;;;;;;1.75;1.60;;;;;;;;;;5055622;28;20131;-79
2022/02/26 03:20:19;;;;;;;1.60;1.50;;;;;;;;;;5054364;28;20053;-79
2022/02/26 03:22:47;;;;;;;2.38;2.17;;;;;;;;;;5055823;28;20041;-79
2022/02/26 03:25:15;;;;;;;1.50;1.40;;;;;;;;;;5055206;28;20060;-79
2022/02/26 03:27:42;;;;;;;2.13;2.00;;;;;;;;;;5055578;28;20049;-81
2022/02/26 03:30:10;;;;;;;1.58;1.48;;;;;;;;;;5055333;28;20102;-81
2022/02/26 03:32:39;;;;;;;2.20;1.60;;;;;;;;;;5054483;28;20088;-81
2022/02/26 03:35:07;;;;;;;3.45;2.00;;;;;;;;;;5054478;28;20049;-81
2022/02/26 03:37:35;;;;;;;2.95;1.90;;;;;;;;;;5055187;28;20535;-81
2022/02/26 03:40:13;;;;;;;2.30;2.13;;;;;;;;;;5055480;28;20045;-81
2022/02/26 03:42:41;;;;;;;1.83;1.70;;;;;;;;;;5055133;28;20083;-81
2022/02/26 03:45:11;;;;;;;1.77;1.67;;;;;;;;;;5055408;28;20079;-81
2022/02/26 03:47:40;;;;;;;1.70;1.60;;;;;;;;;;5055285;28;20049;-81
2022/02/26 03:50:11;;;;;;;2.65;2.45;;;;;;;;;;5055351;28;20053;-81
2022/02/26 03:52:39;;;;;;;1.90;1.80;;;;;;;;;;5054791;28;20044;-81
2022/02/26 03:55:08;;;;;;;3.35;2.13;;;;;;;;;;5055103;28;20045;-81
2022/02/26 03:57:38;;;;;;;2.15;1.95;;;;;;;;;;5054756;28;20063;-81
2022/02/26 04:00:08;;;;;;;1.98;1.88;;;;;;;;;;5053548;28;20041;-81
2022/02/26 04:02:38;;;;;;;5.22;2.45;;;;;;;;;;5053943;28;20059;-81
2022/02/26 04:05:06;;;;;;;3.13;2.92;;;;;;;;;;5053740;28;20049;-81
2022/02/26 04:07:34;;;;;;;3.38;3.17;;;;;;;;;;5053640;28;20053;-81
2022/02/26 04:10:03;;;;;;;4.10;3.80;;;;;;;;;;5054249;28;20048;-81
2022/02/26 04:12:30;;;;;;;3.65;3.35;;;;;;;;;;5020352;28;20539;-81
2022/02/26 04:14:58;;;;;;;6.40;3.33;;;;;;;;;;5054847;28;20068;-81
2022/02/26 04:17:24;;;;;;;6.07;3.40;;;;;;;;;;5053314;28;20048;-81
2022/02/26 04:19:52;;;;;;;10.10;5.28;;;;;;;;;;5036211;28;20131;-82
2022/02/26 04:22:19;;;;;;;8.80;3.95;;;;;;;;;;5054369;28;20136;-81
2022/02/26 04:24:48;;;;;;;3.78;3.50;;;;;;;;;;5037492;28;20049;-81
2022/02/26 04:27:15;;;;;;;6.13;3.25;;;;;;;;;;5037164;28;20105;-81
2022/02/26 04:29:42;;;;;;;4.00;3.70;;;;;;;;;;5053674;28;20165;-81
2022/02/26 04:32:29;;;;;;;4.07;3.78;;;;;;;;;;5053118;28;20079;-81
2022/02/26 04:34:56;;;;;;;3.10;2.90;;;;;;;;;;5036806;28;20056;-81
2022/02/26 04:37:24;;;;;;;3.60;3.30;;;;;;;;;;5052243;28;20095;-79
2022/02/26 04:39:53;;;;;;;3.38;2.70;;;;;;;;;;5054013;28;20491;-79
2022/02/26 04:42:20;;;;;;;3.83;3.28;;;;;;;;;;5054027;28;20102;-80
2022/02/26 04:44:48;;;;;;;3.03;2.83;;;;;;;;;;5052894;28;20056;-80
2022/02/26 04:47:15;;;;;;;3.17;2.90;;;;;;;;;;5052607;28;20500;-79
2022/02/26 04:49:43;;;;;;;6.55;3.35;;;;;;;;;;5052957;28;20499;-80
2022/02/26 04:52:10;;;;;;;4.18;2.90;;;;;;;;;;5053888;28;20067;-80
2022/02/26 04:54:37;;;;;;;3.55;3.25;;;;;;;;;;5053911;28;20055;-80
2022/02/26 04:57:05;;;;;;;3.33;2.97;;;;;;;;;;5052437;28;20166;-81
2022/02/26 04:59:32;;;;;;;3.00;2.70;;;;;;;;;;5052830;28;20064;-82
2022/02/26 05:02:00;;;;;;;4.00;3.20;;;;;;;;;;5052787;28;20504;-79
2022/02/26 05:04:28;;;;;;;3.10;2.88;;;;;;;;;;5053695;28;20049;-79
2022/02/26 05:06:56;;;;;;;4.18;2.92;;;;;;;;;;5052538;28;20502;-80
2022/02/26 05:09:24;;;;;;;2.90;2.70;;;;;;;;;;5052515;28;20056;-80
2022/02/26 05:11:52;;;;;;;4.22;3.10;;;;;;;;;;5037729;28;20419;-80
2022/02/26 05:14:18;;;;;;;3.80;3.38;;;;;;;;;;5049108;28;20473;-80
2022/02/26 05:16:47;;;;;;;3.22;3.00;;;;;;;;;;5051734;28;20091;-80
2022/02/26 05:19:14;;;;;;;4.32;3.00;;;;;;;;;;5053825;28;20068;-80
2022/02/26 05:21:42;;;;;;;5.80;3.55;;;;;;;;;;5053603;28;20048;-80
2022/02/26 05:24:10;;;;;;;2.85;2.65;;;;;;;;;;5052412;28;20049;-80
2022/02/26 05:26:37;;;;;;;9.23;3.90;;;;;;;;;;5053294;28;20135;-80
2022/02/26 05:29:06;;;;;;;2.80;2.60;;;;;;;;;;5052580;28;20499;-80
2022/02/26 05:31:33;;;;;;;2.90;2.70;;;;;;;;;;5051872;28;20049;-80
2022/02/26 05:34:01;;;;;;;3.58;2.80;;;;;;;;;;5053575;28;20075;-80
2022/02/26 05:36:29;;;;;;;4.53;2.80;;;;;;;;;;5051789;28;20083;-80
2022/02/26 05:38:56;;;;;;;3.10;2.85;;;;;;;;;;5053475;28;20053;-80
2022/02/26 05:41:23;;;;;;;3.25;3.05;;;;;;;;;;5051918;28;20404;-80
2022/02/26 05:43:51;;;;;;;3.78;2.85;;;;;;;;;;5052117;28;20077;-80
2022/02/26 05:46:18;;;;;;;3.60;3.30;;;;;;;;;;5052989;28;20053;-80
2022/02/26 05:48:46;;;;;;;3.10;2.80;;;;;;;;;;5051628;28;20041;-80
2022/02/26 05:51:14;;;;;;;5.75;3.35;;;;;;;;;;5051465;28;20053;-80
2022/02/26 05:53:41;;;;;;;3.70;3.40;;;;;;;;;;5053393;28;20060;-79
2022/02/26 05:56:08;;;;;;;3.20;2.97;;;;;;;;;;5053222;28;20187;-79
2022/02/26 05:58:35;;;;;;;4.47;3.55;;;;;;;;;;5052846;28;20091;-79
2022/02/26 06:01:03;;;;;;;3.50;3.20;;;;;;;;;;5051630;28;20388;-79
2022/02/26 06:03:31;;;;;;;5.05;3.80;;;;;;;;;;5052925;28;20056;-79
2022/02/26 06:05:59;;;;;;;3.80;3.50;;;;;;;;;;5035504;28;20115;-79
2022/02/26 06:08:27;;;;;;;4.07;3.25;;;;;;;;;;5051933;28;20055;-79
2022/02/26 06:10:55;;;;;;;5.32;3.42;;;;;;;;;;5051202;28;20487;-79
2022/02/26 06:13:22;;;;;;;4.13;3.70;;;;;;;;;;5052420;28;20060;-79
2022/02/26 06:15:50;;;;;;;4.88;3.85;;;;;;;;;;5051928;28;20049;-79
2022/02/26 06:18:20;;;;;;;4.55;3.80;;;;;;;;;;5052554;28;20149;-78
2022/02/26 06:20:47;;;;;;;4.13;3.53;;;;;;;;;;5053173;28;20043;-79
2022/02/26 06:23:14;;;;;;;5.28;4.10;;;;;;;;;;5052772;28;20131;-79
2022/02/26 06:25:43;;;;;;;4.72;4.18;;;;;;;;;;5051630;28;20128;-79
2022/02/26 06:28:12;;;;;;;4.82;4.00;;;;;;;;;;5053015;28;20124;-78
2022/02/26 06:30:46;;;;;;;4.22;3.80;;;;;;;;;;5051517;28;20044;-78
2022/02/26 06:33:21;;;;;;;4.13;3.83;;;;;;;;;;5051687;28;20057;-80
2022/02/26 06:35:48;;;;;;;6.72;4.60;;;;;;;;;;5051402;28;20045;-78
2022/02/26 06:38:16;;;;;;;6.32;4.22;;;;;;;;;;5052629;28;20048;-80
2022/02/26 06:40:44;;;;;;;5.38;4.43;;;;;;;;;;5051363;28;20060;-81
2022/02/26 06:43:12;;;;;;;4.07;3.78;;;;;;;;;;5047472;28;20448;-81
2022/02/26 06:45:40;;;;;;;4.82;4.32;;;;;;;;;;5054639;28;20127;-81
2022/02/26 06:48:07;;;;;;;5.35;3.85;;;;;;;;;;5055984;28;20049;-78
2022/02/26 06:50:35;;;;;;;4.43;4.03;;;;;;;;;;5054277;28;20041;-81
2022/02/26 06:53:02;;;;;;;4.03;3.60;;;;;;;;;;5050981;28;20044;-80
2022/02/26 06:55:31;;;;;;;5.07;4.57;;;;;;;;;;5048797;28;20061;-80
2022/02/26 06:57:58;;;;;;;4.35;3.95;;;;;;;;;;5054002;28;20057;-80
2022/02/26 07:00:29;;;;;;;5.28;4.28;;;;;;;;;;5048781;28;20139;-80
2022/02/26 07:02:57;;;;;;;4.47;4.05;;;;;;;;;;5046435;28;20538;-79
2022/02/26 07:05:25;;;;;;;4.68;4.28;;;;;;;;;;5048372;28;20052;-80
2022/02/26 07:07:52;;;;;;;11.07;8.48;;;;;;;;;;5066170;28;20132;-81
2022/02/26 07:10:19;;;;;;;4.45;4.05;;;;;;;;;;5047160;28;20068;-81
2022/02/26 07:12:46;;;;;;;6.13;5.53;;;;;;;;;;5056397;28;20060;-83
2022/02/26 07:15:13;;;;;;;4.47;4.10;;;;;;;;;;5048358;28;20075;-81
2022/02/26 07:17:41;;;;;;;4.82;4.43;;;;;;;;;;5044634;28;20140;-77
2022/02/26 07:20:10;;;;;;;4.63;3.90;;;;;;;;;;5049489;28;20551;-81
2022/02/26 07:22:38;;;;;;;4.75;3.72;;;;;;;;;;5051418;28;20439;-82
2022/02/26 07:25:06;;;;;;;7.65;4.75;;;;;;;;;;5057900;28;20049;-80
2022/02/26 07:27:34;;;;;;;4.15;3.78;;;;;;;;;;5056384;28;20051;-79
2022/02/26 07:30:02;;;;;;;4.57;4.20;;;;;;;;;;5058562;28;20040;-77
2022/02/26 07:32:29;;;;;;;4.00;3.70;;;;;;;;;;5050207;28;20080;-80
2022/02/26 07:34:59;;;;;;;4.60;3.80;;;;;;;;;;5023083;28;20056;-81
2022/02/26 07:37:26;;;;;;;3.92;3.63;;;;;;;;;;5026812;28;20115;-82
2022/02/26 07:39:55;;;;;;;3.30;3.00;;;;;;;;;;5061253;28;20053;-80
2022/02/26 07:42:22;;;;;;;5.25;3.53;;;;;;;;;;5060212;28;20496;-77
2022/02/26 07:44:49;;;;;;;2.92;2.63;;;;;;;;;;5050524;28;20137;-78
2022/02/26 07:47:17;;;;;;;2.95;2.50;;;;;;;;;;5043234;28;20059;-78
2022/02/26 07:49:46;;;;;;;2.50;2.00;;;;;;;;;;5054147;28;20045;-76
2022/02/26 07:52:27;;;;;;;3.80;2.33;;;;;;;;;;5039253;28;20508;-76
2022/02/26 07:54:56;;;;;;;3.03;2.17;;;;;;;;;;5039804;28;20530;-75
2022/02/26 07:57:23;;;;;;;2.92;2.15;;;;;;;;;;5045212;28;20041;-79
2022/02/26 07:59:50;;;;;;;2.65;2.05;;;;;;;;;;5034354;28;20416;-75
2022/02/26 08:02:18;;;;;;;2.00;1.85;;;;;;;;;;5044157;28;20053;-76
2022/02/26 08:04:47;;;;;;;2.25;1.77;;;;;;;;;;5046039;28;20057;-74
2022/02/26 08:07:14;;;;;;;3.90;1.80;;;;;;;;;;5037771;28;20068;-75
2022/02/26 08:09:43;;;;;;;5.07;2.55;;;;;;;;;;5046504;28;20576;-75
2022/02/26 08:12:11;;;;;;;7.45;2.65;;;;;;;;;;5043227;28;20136;-74
2022/02/26 08:14:39;;;;;;;1.60;1.50;;;;;;;;;;5039685;28;20053;-75
2022/02/26 08:17:06;;;;;;;4.05;1.73;;;;;;;;;;5049565;28;20057;-74
2022/02/26 08:19:34;;;;;;;4.80;1.98;;;;;;;;;;5043680;28;20453;-74
2022/02/26 08:22:02;;;;;;;1.52;1.42;;;;;;;;;;5037905;28;20057;-74
2022/02/26 08:24:31;;;;;;;8.23;2.08;;;;;;;;;;5021771;28;20140;-75
2022/02/26 08:26:58;;;;;;;5.28;2.33;;;;;;;;;;5052078;28;20094;-75
2022/02/26 08:29:25;;;;;;;2.42;1.65;;;;;;;;;;5037362;28;20060;-74
2022/02/26 08:31:53;;;;;;;2.13;2.00;;;;;;;;;;5035964;28;20049;-78
2022/02/26 08:34:22;;;;;;;5.93;1.55;;;;;;;;;;5024618;28;20397;-77
2022/02/26 08:36:50;;;;;;;3.08;1.40;;;;;;;;;;5051442;28;20061;-77
2022/02/26 08:39:17;;;;;;;2.70;2.35;;;;;;;;;;5043276;28;20493;-78
2022/02/26 08:41:44;;;;;;;2.08;1.85;;;;;;;;;;5053015;28;20040;-77
2022/02/26 08:44:12;;;;;;;7.13;3.20;;;;;;;;;;5054452;28;20103;-79
2022/02/26 08:46:39;;;;;;;1.65;1.55;;;;;;;;;;5041707;28;20109;-78
2022/02/26 08:49:06;;;;;;;2.45;1.67;;;;;;;;;;5057818;28;20141;-77
2022/02/26 08:51:34;;;;;;;2.00;1.90;;;;;;;;;;5051350;28;20061;-78
2022/02/26 08:54:01;;;;;;;3.50;2.28;;;;;;;;;;5047837;28;20068;-78
2022/02/26 08:56:29;;;;;;;2.25;2.08;;;;;;;;;;5049702;28;20051;-78
2022/02/26 08:58:58;;;;;;;1.90;1.77;;;;;;;;;;5062168;28;20067;-77
2022/02/26 09:01:25;;;;;;;4.80;2.70;;;;;;;;;;5058955;28;20048;-77
2022/02/26 09:03:53;;;;;;;2.92;2.60;;;;;;;;;;5063780;28;20114;-75
2022/02/26 09:06:21;;;;;;;2.50;2.30;;;;;;;;;;5058770;28;20049;-77
2022/02/26 09:08:48;;;;;;;3.85;2.40;;;;;;;;;;5053112;28;20095;-76
2022/02/26 09:11:16;;;;;;;3.30;2.70;;;;;;;;;;5053269;28;20451;-76
2022/02/26 09:13:45;;;;;;;2.78;2.38;;;;;;;;;;5051984;28;20079;-77
2022/02/26 09:16:14;;;;;;;2.22;2.10;;;;;;;;;;5055679;28;20049;-77
2022/02/26 09:18:42;;;;;;;4.43;1.95;;;;;;;;;;5053306;28;20107;-75
2022/02/26 09:21:13;;;;;;;3.22;2.90;;;;;;;;;;5051802;28;20118;-77
2022/02/26 09:23:41;;;;;;;2.85;2.65;;;;;;;;;;5050208;28;20037;-75
2022/02/26 09:26:08;;;;;;;2.83;2.53;;;;;;;;;;5039812;28;20049;-76
2022/02/26 09:36:21;;;;;;;3.20;3.00;;;;;;;;;;5031170;28;20069;-88
2022/02/26 09:39:59;;;;;;;5.30;3.50;;;;;;;;;;5035855;28;20080;-89
2022/02/26 09:43:10;;;;;;;3.75;3.45;;;;;;;;;;5045082;28;20095;-89
2022/02/26 09:46:12;;;;;;;3.95;2.35;;;;;;;;;;5038477;28;20102;-90
2022/02/26 09:48:41;;;;;;;3.25;2.95;;;;;;;;;;5041187;28;20046;-89
2022/02/26 09:51:08;;;;;;;3.08;2.63;;;;;;;;;;5041920;28;20503;-88
2022/02/26 09:53:36;;;;;;;3.25;2.80;;;;;;;;;;5032821;28;20505;-89
2022/02/26 09:56:03;;;;;;;2.63;2.20;;;;;;;;;;5045674;28;20076;-88
2022/02/26 09:58:30;;;;;;;3.08;2.78;;;;;;;;;;5052250;28;20049;-86
2022/02/26 10:00:58;;;;;;;4.82;2.72;;;;;;;;;;5047218;28;20041;-86
2022/02/26 10:03:29;;;;;;;4.50;2.40;;;;;;;;;;5039348;28;20041;-90
2022/02/26 10:06:03;;;;;;;4.00;3.05;;;;;;;;;;5050529;28;20086;-89
2022/02/26 10:08:42;;;;;;;4.30;2.85;;;;;;;;;;5049463;28;20045;-88
2022/02/26 10:11:48;;;;;;;4.72;2.42;;;;;;;;;;5046409;28;20049;-86
2022/02/26 10:14:17;;;;;;;3.33;2.90;;;;;;;;;;5040297;28;20416;-84
2022/02/26 10:16:59;;;;;;;3.05;2.58;;;;;;;;;;5039511;28;20042;-86
2022/02/26 10:19:30;;;;;;;8.25;2.80;;;;;;;;;;5049326;28;20073;-86
2022/02/26 10:22:04;;;;;;;4.10;3.05;;;;;;;;;;5053037;28;20049;-87
2022/02/26 10:24:32;;;;;;;3.53;3.10;;;;;;;;;;5034897;28;20178;-88
2022/02/26 10:27:06;;;;;;;5.22;3.70;;;;;;;;;;5053126;28;20124;-88
2022/02/26 10:29:36;;;;;;;3.00;2.72;;;;;;;;;;5058822;28;20045;-88
2022/02/26 10:32:05;;;;;;;4.40;2.85;;;;;;;;;;5051547;28;20054;-87
2022/02/26 10:34:34;;;;;;;3.60;2.97;;;;;;;;;;5052520;28;20103;-87
2022/02/26 10:37:07;;;;;;;2.80;2.60;;;;;;;;;;5038704;28;20416;-88
2022/02/26 10:39:48;;;;;;;2.65;2.45;;;;;;;;;;5039813;28;20049;-88
2022/02/26 10:42:28;;;;;;;4.47;2.92;;;;;;;;;;5040439;28;20057;-89
2022/02/26 10:45:06;;;;;;;4.13;2.95;;;;;;;;;;5056463;28;20040;-87
2022/02/26 10:47:36;;;;;;;4.50;3.17;;;;;;;;;;5051356;28;20045;-87
2022/02/26 10:50:34;;;;;;;3.40;2.80;;;;;;;;;;5040249;28;20470;-88
2022/02/26 10:53:05;;;;;;;5.65;3.00;;;;;;;;;;5044854;28;20061;-87
2022/02/26 10:55:58;;;;;;;2.72;2.40;;;;;;;;;;5051413;28;20110;-88
2022/02/26 10:58:29;;;;;;;2.97;2.70;;;;;;;;;;5047191;28;20052;-87
2022/02/26 11:01:02;;;;;;;7.43;3.28;;;;;;;;;;5053036;28;20131;-87
2022/02/26 11:03:29;;;;;;;2.78;2.58;;;;;;;;;;5055956;28;20049;-87
2022/02/26 11:05:58;;;;;;;3.88;2.83;;;;;;;;;;5056103;28;20533;-86
2022/02/26 11:08:26;;;;;;;5.38;3.20;;;;;;;;;;5055501;28;20414;-86
2022/02/26 11:10:54;;;;;;;4.50;3.15;;;;;;;;;;5056482;28;20122;-87
2022/02/26 11:13:22;;;;;;;3.08;2.78;;;;;;;;;;5055868;28;20488;-87
2022/02/26 11:15:53;;;;;;;5.75;3.53;;;;;;;;;;5056095;28;20068;-87
2022/02/26 11:18:24;;;;;;;5.75;3.22;;;;;;;;;;5040910;28;20060;-87
2022/02/26 11:20:51;;;;;;;3.38;2.95;;;;;;;;;;5051442;28;20118;-81
2022/02/26 11:23:19;;;;;;;7.07;3.72;;;;;;;;;;5052460;28;20057;-82
2022/02/26 11:25:48;;;;;;;2.83;2.63;;;;;;;;;;5063671;28;20419;-86
2022/02/26 11:28:17;;;;;;;3.50;2.75;;;;;;;;;;5057996;28;20069;-91
2022/02/26 11:30:58;;;;;;;3.85;3.25;;;;;;;;;;5054142;28;20107;-85
2022/02/26 11:33:27;;;;;;;3.25;2.95;;;;;;;;;;5054338;28;20049;-87
2022/02/26 11:35:57;;;;;;;3.33;2.75;;;;;;;;;;5055844;28;20045;-83
2022/02/26 11:38:26;;;;;;;3.72;2.70;;;;;;;;;;5053922;28;20107;-84
2022/02/26 11:41:27;;;;;;;4.35;3.30;;;;;;;;;;5043115;28;20045;-84
2022/02/26 11:43:59;;;;;;;3.03;2.65;;;;;;;;;;5055434;28;20057;-84
2022/02/26 11:46:36;;;;;;;4.25;2.90;;;;;;;;;;5053746;28;20037;-84
2022/02/26 11:49:17;;;;;;;3.15;2.60;;;;;;;;;;5053498;28;20056;-84
2022/02/26 11:51:49;;;;;;;4.70;2.80;;;;;;;;;;5054102;28;20399;-84
2022/02/26 11:54:23;;;;;;;2.47;2.28;;;;;;;;;;5054818;28;20423;-84
2022/02/26 11:56:57;;;;;;;6.32;2.95;;;;;;;;;;5055027;28;20537;-84
2022/02/26 11:59:38;;;;;;;2.38;2.17;;;;;;;;;;5053775;28;20049;-84
2022/02/26 12:02:12;;;;;;;2.67;2.45;;;;;;;;;;5055041;28;20442;-83
2022/02/26 12:04:59;;;;;;;6.88;2.30;;;;;;;;;;5053487;28;20420;-83
2022/02/26 12:07:31;;;;;;;2.78;2.58;;;;;;;;;;5055308;28;20056;-84
2022/02/26 12:10:03;;;;;;;2.75;2.55;;;;;;;;;;5052994;28;20094;-83
2022/02/26 12:12:33;;;;;;;3.75;2.40;;;;;;;;;;5054530;28;20462;-83
2022/02/26 12:15:01;;;;;;;4.13;2.42;;;;;;;;;;5052841;28;20103;-83
2022/02/26 12:17:49;;;;;;;4.18;2.88;;;;;;;;;;5053258;28;20479;-83
2022/02/26 12:20:19;;;;;;;2.45;2.25;;;;;;;;;;5053079;28;20069;-81
2022/02/26 12:22:48;;;;;;;3.00;2.38;;;;;;;;;;5039526;28;20099;-90
2022/02/26 12:25:17;;;;;;;5.78;2.78;;;;;;;;;;5049677;28;20041;-88
2022/02/26 12:27:58;;;;;;;3.58;2.22;;;;;;;;;;5033073;28;20132;-89
2022/02/26 12:30:31;;;;;;;3.00;2.58;;;;;;;;;;5048434;28;20061;-88
2022/02/26 12:33:04;;;;;;;4.18;1.88;;;;;;;;;;5049904;28;20057;-88
2022/02/26 12:35:34;;;;;;;2.67;2.47;;;;;;;;;;5054558;28;20041;-88
2022/02/26 12:38:21;;;;;;;2.15;1.95;;;;;;;;;;5052673;28;20088;-88
2022/02/26 12:40:48;;;;;;;3.30;2.35;;;;;;;;;;5052751;28;20057;-88
2022/02/26 12:43:16;;;;;;;2.60;2.20;;;;;;;;;;5053589;28;20416;-88
2022/02/26 12:45:46;;;;;;;3.58;2.10;;;;;;;;;;5052843;28;20496;-87
2022/02/26 12:48:13;;;;;;;3.63;2.33;;;;;;;;;;5036476;28;20049;-86
2022/02/26 12:50:41;;;;;;;2.35;2.13;;;;;;;;;;5053138;28;20107;-82
2022/02/26 12:53:09;;;;;;;2.20;2.00;;;;;;;;;;5053554;28;20041;-83
2022/02/26 12:55:36;;;;;;;2.58;2.30;;;;;;;;;;5054115;28;20072;-83
2022/02/26 12:58:04;;;;;;;3.30;2.00;;;;;;;;;;5053717;28;20053;-83
2022/02/26 13:00:33;;;;;;;1.80;1.60;;;;;;;;;;5052466;28;20080;-83
2022/02/26 13:03:06;;;;;;;2.38;2.20;;;;;;;;;;5053582;28;20056;-83
2022/02/26 13:05:43;;;;;;;2.53;2.33;;;;;;;;;;5052342;28;20042;-81
2022/02/26 13:08:14;;;;;;;3.42;2.33;;;;;;;;;;5052779;28;20132;-82
2022/02/26 13:10:43;;;;;;;2.53;2.33;;;;;;;;;;5051285;28;20048;-80
2022/02/26 13:13:17;;;;;;;2.17;1.90;;;;;;;;;;5047032;28;20069;-82
2022/02/26 13:15:49;;;;;;;4.20;2.75;;;;;;;;;;5049933;28;20056;-85
2022/02/26 13:18:19;;;;;;;4.50;2.15;;;;;;;;;;5047172;28;20049;-80
2022/02/26 13:20:49;;;;;;;3.22;2.03;;;;;;;;;;5051190;28;20409;-78
2022/02/26 13:23:18;;;;;;;3.55;2.58;;;;;;;;;;5046057;28;20045;-81
2022/02/26 13:25:46;;;;;;;3.13;2.33;;;;;;;;;;5049558;28;20061;-78
2022/02/26 13:28:16;;;;;;;5.03;2.30;;;;;;;;;;5043539;28;20511;-80
2022/02/26 13:30:50;;;;;;;7.55;2.58;;;;;;;;;;5046879;28;20056;-77
2022/02/26 13:33:22;;;;;;;5.10;2.60;;;;;;;;;;5044845;28;20041;-79
2022/02/26 13:35:49;;;;;;;4.85;2.28;;;;;;;;;;5041963;28;20064;-78
2022/02/26 13:38:20;;;;;;;4.05;2.20;;;;;;;;;;5042386;28;20053;-76
2022/02/26 13:40:53;;;;;;;2.83;2.42;;;;;;;;;;5045671;28;20052;-76
2022/02/26 13:43:22;;;;;;;2.75;2.35;;;;;;;;;;5042757;28;20049;-76
2022/02/26 13:45:54;;;;;;;2.25;2.13;;;;;;;;;;5066055;28;20492;-76
2022/02/26 13:48:22;;;;;;;2.60;2.40;;;;;;;;;;5043775;28;20060;-76
2022/02/26 13:50:55;;;;;;;3.10;2.47;;;;;;;;;;5038971;28;20111;-76
2022/02/26 13:53:25;;;;;;;4.05;3.03;;;;;;;;;;5051608;28;20423;-75
2022/02/26 13:55:58;;;;;;;2.53;2.22;;;;;;;;;;5044391;28;20064;-76
2022/02/26 13:58:31;;;;;;;3.38;2.67;;;;;;;;;;5036558;28;20139;-76
2022/02/26 14:01:17;;;;;;;2.88;2.20;;;;;;;;;;5040131;28;20049;-76
2022/02/26 14:03:48;;;;;;;2.53;2.33;;;;;;;;;;5044409;28;20084;-77
2022/02/26 14:06:17;;;;;;;3.55;3.25;;;;;;;;;;5047516;28;20053;-77
2022/02/26 14:08:45;;;;;;;2.55;2.35;;;;;;;;;;5046642;28;20049;-77
2022/02/26 14:11:15;;;;;;;2.88;2.58;;;;;;;;;;5047030;28;20133;-77
2022/02/26 14:13:47;;;;;;;2.40;2.20;;;;;;;;;;5046957;28;20050;-77
2022/02/26 14:16:14;;;;;;;2.67;2.47;;;;;;;;;;5049516;28;20049;-76
2022/02/26 14:18:45;;;;;;;2.60;2.17;;;;;;;;;;5046436;28;20132;-78
2022/02/26 14:21:17;;;;;;;3.38;2.10;;;;;;;;;;5035097;28;20076;-77
2022/02/26 14:23:46;;;;;;;3.95;2.75;;;;;;;;;;5036421;28;20558;-77
2022/02/26 14:26:17;;;;;;;3.25;2.22;;;;;;;;;;5049213;28;20136;-79
2022/02/26 14:28:48;;;;;;;2.85;2.20;;;;;;;;;;5053179;28;20653;-77
2022/02/26 14:31:15;;;;;;;2.97;2.28;;;;;;;;;;5043014;28;20054;-77
2022/02/26 14:33:44;;;;;;;2.35;2.15;;;;;;;;;;5071404;28;20065;-80
2022/02/26 14:36:11;;;;;;;6.10;2.45;;;;;;;;;;5075363;28;20515;-77
2022/02/26 14:38:41;;;;;;;2.17;1.98;;;;;;;;;;5038516;28;20052;-77
2022/02/26 14:41:09;;;;;;;2.75;2.50;;;;;;;;;;5058668;28;20095;-77
2022/02/26 14:43:38;;;;;;;4.30;2.50;;;;;;;;;;5062212;28;20454;-78
2022/02/26 14:46:07;;;;;;;4.03;2.55;;;;;;;;;;5062613;28;20483;-80
2022/02/26 14:48:35;;;;;;;4.63;2.20;;;;;;;;;;5061894;28;20049;-77
2022/02/26 14:51:04;;;;;;;1.98;1.77;;;;;;;;;;5033372;28;20041;-77
2022/02/26 14:53:32;;;;;;;1.85;1.75;;;;;;;;;;5060454;28;20059;-77
2022/02/26 14:56:00;;;;;;;2.83;1.70;;;;;;;;;;5060352;28;20049;-78
2022/02/26 14:58:27;;;;;;;3.03;2.05;;;;;;;;;;5061024;28;20124;-76
2022/02/26 15:00:54;;;;;;;2.45;2.13;;;;;;;;;;5033408;28;20076;-77
2022/02/26 15:03:22;;;;;;;2.55;2.35;;;;;;;;;;5064099;28;20048;-76
2022/02/26 15:05:49;;;;;;;2.20;2.00;;;;;;;;;;5062201;28;20075;-77
2022/02/26 15:08:16;;;;;;;2.05;1.85;;;;;;;;;;5054498;28;20500;-77
2022/02/26 15:10:44;;;;;;;3.08;2.38;;;;;;;;;;5060364;28;20067;-77